Time;durP1;ratioP1;P1;durP2;ratioP2;P2;SDS_P1;SDS_P2;PMS_P1;PMS_P2;Temp;Humidity;BMP_temperature;BMP_pressure;BME280_temperature;BME280_humidity;BME280_pressure;Samples;Min_cycle;Max_cycle;Signal;HPM_P1;HPM_P2
2023/07/30 00:00:22;;;;;;;11.10;8.60;;;21.00;99.90;;;;;;5011377;28;20029;-74
2023/07/30 00:02:48;;;;;;;9.93;8.07;;;20.90;99.90;;;;;;5012576;28;20467;-74
2023/07/30 00:05:14;;;;;;;10.55;9.65;;;20.80;99.90;;;;;;5012391;28;20041;-74
2023/07/30 00:07:40;;;;;;;11.95;9.07;;;20.80;99.90;;;;;;5011856;28;20033;-74
2023/07/30 00:10:07;;;;;;;11.43;10.18;;;20.70;99.90;;;;;;5011255;28;20042;-74
2023/07/30 00:12:33;;;;;;;15.38;13.90;;;20.70;99.90;;;;;;5011069;28;20034;-74
2023/07/30 00:14:59;;;;;;;13.20;11.82;;;20.60;99.90;;;;;;5011959;28;20387;-74
2023/07/30 00:17:25;;;;;;;16.92;15.32;;;20.60;99.90;;;;;;4996581;28;20042;-74
2023/07/30 00:19:51;;;;;;;11.15;10.15;;;20.50;99.90;;;;;;4992772;28;20030;-74
2023/07/30 00:22:17;;;;;;;13.50;10.50;;;20.40;99.90;;;;;;5008722;28;20026;-74
2023/07/30 00:24:43;;;;;;;14.00;12.05;;;20.40;99.90;;;;;;5011117;28;20042;-74
2023/07/30 00:27:10;;;;;;;14.02;12.50;;;20.40;99.90;;;;;;5010692;28;20033;-74
2023/07/30 00:29:36;;;;;;;16.88;15.23;;;20.40;99.90;;;;;;5011797;28;20034;-74
2023/07/30 00:32:02;;;;;;;17.63;16.05;;;20.40;99.90;;;;;;5011514;28;20075;-74
2023/07/30 00:34:28;;;;;;;20.23;18.67;;;20.30;99.90;;;;;;5012278;28;20030;-74
2023/07/30 00:36:54;;;;;;;10.77;9.10;;;20.20;99.90;;;;;;5011733;28;20383;-73
2023/07/30 00:39:20;;;;;;;13.45;9.88;;;20.20;99.90;;;;;;5012245;28;20026;-74
2023/07/30 00:41:47;;;;;;;13.07;9.63;;;20.20;99.90;;;;;;5011795;28;20026;-74
2023/07/30 00:44:13;;;;;;;13.25;10.15;;;20.20;99.90;;;;;;5011630;28;20041;-74
2023/07/30 00:46:39;;;;;;;14.27;10.68;;;20.10;99.90;;;;;;5011550;28;20026;-74
2023/07/30 00:49:05;;;;;;;11.82;10.48;;;20.20;99.90;;;;;;5011938;28;20034;-74
2023/07/30 00:51:31;;;;;;;11.98;10.75;;;20.10;99.90;;;;;;5010356;28;20049;-74
2023/07/30 00:53:57;;;;;;;12.60;9.80;;;20.20;99.90;;;;;;5010879;28;20030;-74
2023/07/30 00:56:23;;;;;;;12.43;9.43;;;20.20;99.90;;;;;;5010334;28;20022;-74
2023/07/30 00:58:49;;;;;;;13.88;11.45;;;20.20;99.90;;;;;;5010528;28;20038;-74
2023/07/30 01:01:16;;;;;;;15.20;10.40;;;20.10;99.90;;;;;;5010158;28;20034;-74
2023/07/30 01:03:42;;;;;;;13.68;11.57;;;20.10;99.90;;;;;;5010703;28;20041;-74
2023/07/30 01:06:08;;;;;;;17.50;16.10;;;20.00;99.90;;;;;;5010239;28;20061;-73
2023/07/30 01:08:34;;;;;;;20.90;18.90;;;20.00;99.90;;;;;;5014008;28;20057;-74
2023/07/30 01:11:00;;;;;;;13.35;10.10;;;20.00;99.90;;;;;;5015264;28;20026;-74
2023/07/30 01:13:27;;;;;;;16.13;14.10;;;20.00;99.90;;;;;;5015150;28;20498;-73
2023/07/30 01:15:53;;;;;;;12.73;8.85;;;19.90;99.90;;;;;;5010723;28;20414;-74
2023/07/30 01:18:19;;;;;;;14.30;9.48;;;19.90;99.90;;;;;;4994492;28;20038;-74
2023/07/30 01:20:45;;;;;;;15.60;9.15;;;19.90;99.90;;;;;;5000312;28;20482;-73
2023/07/30 01:23:11;;;;;;;14.68;11.55;;;19.90;99.90;;;;;;5015177;28;20030;-74
2023/07/30 01:25:37;;;;;;;13.68;8.27;;;20.00;99.90;;;;;;5014807;28;20398;-74
2023/07/30 01:28:05;;;;;;;12.20;8.73;;;19.90;99.90;;;;;;5013640;28;20406;-74
2023/07/30 01:30:34;;;;;;;13.82;9.40;;;19.80;99.90;;;;;;5013168;28;20022;-74
2023/07/30 01:33:00;;;;;;;15.00;10.05;;;19.70;99.90;;;;;;5013945;28;20041;-75
2023/07/30 01:35:27;;;;;;;15.98;8.18;;;19.80;99.90;;;;;;5013722;28;20414;-73
2023/07/30 01:37:53;;;;;;;13.55;8.93;;;19.90;99.90;;;;;;5013612;28;20045;-75
2023/07/30 01:40:20;;;;;;;13.70;7.97;;;19.80;99.90;;;;;;5014541;28;20029;-74
2023/07/30 01:42:46;;;;;;;12.75;8.93;;;19.80;99.90;;;;;;5013486;28;20033;-74
2023/07/30 01:45:12;;;;;;;12.80;8.85;;;19.80;99.90;;;;;;5012699;28;20505;-74
2023/07/30 01:47:38;;;;;;;14.80;10.85;;;19.80;99.90;;;;;;5014631;28;20030;-74
2023/07/30 01:50:05;;;;;;;18.58;16.83;;;19.80;99.90;;;;;;5014612;28;20045;-74
2023/07/30 01:52:31;;;;;;;9.98;7.28;;;19.70;99.90;;;;;;5014272;28;20038;-74
2023/07/30 01:54:58;;;;;;;14.18;7.68;;;19.70;99.90;;;;;;5014395;28;20460;-74
2023/07/30 01:57:24;;;;;;;12.93;7.50;;;19.70;99.90;;;;;;5013672;28;20034;-73
2023/07/30 01:59:50;;;;;;;12.02;8.38;;;19.60;99.90;;;;;;5009714;28;20034;-74
2023/07/30 02:02:17;;;;;;;13.95;8.50;;;19.50;99.90;;;;;;5009795;28;20356;-74
2023/07/30 02:04:43;;;;;;;12.82;7.75;;;19.50;99.90;;;;;;5009899;28;20045;-74
2023/07/30 02:07:09;;;;;;;9.13;6.88;;;19.50;99.90;;;;;;5012613;28;20026;-74
2023/07/30 02:09:35;;;;;;;11.13;6.72;;;19.50;99.90;;;;;;5013212;28;20045;-74
2023/07/30 02:12:01;;;;;;;15.15;6.18;;;19.50;99.90;;;;;;4991573;28;20491;-74
2023/07/30 02:14:27;;;;;;;12.93;7.80;;;19.50;99.90;;;;;;4992288;28;20042;-74
2023/07/30 02:16:53;;;;;;;13.27;5.85;;;19.40;99.90;;;;;;5006543;28;20482;-73
2023/07/30 02:19:19;;;;;;;13.02;10.50;;;19.50;99.90;;;;;;5012711;28;20029;-74
2023/07/30 02:21:45;;;;;;;19.33;16.48;;;19.40;99.90;;;;;;5012333;28;20394;-74
2023/07/30 02:24:12;;;;;;;14.75;13.43;;;19.40;99.90;;;;;;4995209;28;20041;-74
2023/07/30 02:26:38;;;;;;;10.93;7.38;;;19.40;99.90;;;;;;5010864;28;20049;-74
2023/07/30 02:29:04;;;;;;;12.70;8.35;;;19.40;99.90;;;;;;5011593;28;20033;-74
2023/07/30 02:31:30;;;;;;;13.55;7.55;;;19.40;99.90;;;;;;5012033;28;20522;-74
2023/07/30 02:33:57;;;;;;;14.55;7.22;;;19.50;99.90;;;;;;5011631;28;20049;-74
2023/07/30 02:36:23;;;;;;;13.63;10.85;;;19.40;99.90;;;;;;5012448;28;20037;-74
2023/07/30 02:38:50;;;;;;;16.80;7.32;;;19.40;99.90;;;;;;5013744;28;20386;-74
2023/07/30 02:41:16;;;;;;;13.55;8.05;;;19.40;99.90;;;;;;5013204;28;20034;-74
2023/07/30 02:43:42;;;;;;;11.68;7.03;;;19.30;99.90;;;;;;4996343;28;20041;-74
2023/07/30 02:46:08;;;;;;;13.15;6.90;;;19.30;99.90;;;;;;5012691;28;20057;-74
2023/07/30 02:48:34;;;;;;;13.57;7.88;;;19.40;99.90;;;;;;5012347;28;20030;-74
2023/07/30 02:51:00;;;;;;;14.18;7.10;;;19.40;99.90;;;;;;5013124;28;20491;-74
2023/07/30 02:53:27;;;;;;;14.68;8.40;;;19.30;99.90;;;;;;5012305;28;20041;-74
2023/07/30 02:55:53;;;;;;;13.23;6.28;;;19.40;99.90;;;;;;5011646;28;20052;-74
2023/07/30 02:58:19;;;;;;;14.52;6.13;;;19.30;99.90;;;;;;5013316;28;20030;-74
2023/07/30 03:00:45;;;;;;;14.00;7.50;;;19.30;99.90;;;;;;5011595;28;20034;-73
2023/07/30 03:03:11;;;;;;;12.45;6.97;;;19.30;99.90;;;;;;5013515;28;20026;-74
2023/07/30 03:05:39;;;;;;;12.85;6.50;;;19.30;99.90;;;;;;5011936;28;20041;-74
2023/07/30 03:08:05;;;;;;;15.23;7.03;;;19.30;99.90;;;;;;5011900;28;20033;-73
2023/07/30 03:10:31;;;;;;;10.07;5.47;;;19.40;99.90;;;;;;5012698;28;20048;-74
2023/07/30 03:12:57;;;;;;;15.02;6.20;;;19.40;99.90;;;;;;5012164;28;20390;-73
2023/07/30 03:15:24;;;;;;;12.02;6.30;;;19.40;99.90;;;;;;5012539;28;20041;-74
2023/07/30 03:17:50;;;;;;;11.98;5.65;;;19.30;99.90;;;;;;5011846;28;20474;-74
2023/07/30 03:20:16;;;;;;;12.00;6.03;;;19.30;99.90;;;;;;5011604;28;20041;-74
2023/07/30 03:22:42;;;;;;;12.60;5.85;;;19.30;99.90;;;;;;5012972;28;20038;-74
2023/07/30 03:25:08;;;;;;;11.55;6.13;;;19.30;99.90;;;;;;5012851;28;20038;-74
2023/07/30 03:27:34;;;;;;;11.73;6.65;;;19.30;99.90;;;;;;4993204;28;20030;-74
2023/07/30 03:30:00;;;;;;;12.38;6.47;;;19.30;99.90;;;;;;4992978;28;20041;-74
2023/07/30 03:32:27;;;;;;;10.82;6.00;;;19.30;99.90;;;;;;5011035;28;20030;-74
2023/07/30 03:34:53;;;;;;;11.27;6.00;;;19.30;99.90;;;;;;5012775;28;20383;-74
2023/07/30 03:37:19;;;;;;;13.20;6.93;;;19.30;99.90;;;;;;5012057;28;20025;-74
2023/07/30 03:39:45;;;;;;;13.82;7.65;;;19.30;99.90;;;;;;5011669;28;20040;-74
2023/07/30 03:42:11;;;;;;;14.32;6.78;;;19.20;99.90;;;;;;5012594;28;20100;-74
2023/07/30 03:44:37;;;;;;;15.73;7.53;;;19.20;99.90;;;;;;5011668;28;20025;-74
2023/07/30 03:47:03;;;;;;;13.50;5.78;;;19.20;99.90;;;;;;5011865;28;20050;-74
2023/07/30 03:49:29;;;;;;;13.48;6.95;;;19.30;99.90;;;;;;5012537;28;20391;-74
2023/07/30 03:51:56;;;;;;;14.80;7.53;;;19.30;99.90;;;;;;5011945;28;20038;-74
2023/07/30 03:54:22;;;;;;;13.60;7.28;;;19.30;99.90;;;;;;4995184;28;20030;-74
2023/07/30 03:56:48;;;;;;;14.85;7.13;;;19.20;99.90;;;;;;5012172;28;20037;-74
2023/07/30 03:59:14;;;;;;;20.75;11.00;;;19.20;99.90;;;;;;5012664;28;20406;-74
2023/07/30 04:01:40;;;;;;;11.32;7.85;;;19.20;99.90;;;;;;5011764;28;20026;-74
2023/07/30 04:04:06;;;;;;;14.05;6.97;;;19.10;99.90;;;;;;5011417;28;20418;-73
2023/07/30 04:06:32;;;;;;;13.70;7.32;;;19.10;99.90;;;;;;5011759;28;20049;-74
2023/07/30 04:08:58;;;;;;;13.52;7.40;;;19.10;99.90;;;;;;5012369;28;20347;-74
2023/07/30 04:11:24;;;;;;;14.18;8.13;;;19.10;99.90;;;;;;4994904;28;20117;-74
2023/07/30 04:13:50;;;;;;;10.95;6.43;;;19.00;99.90;;;;;;5012574;28;20049;-74
2023/07/30 04:16:16;;;;;;;13.82;7.30;;;19.00;99.90;;;;;;5004507;28;20026;-74
2023/07/30 04:18:42;;;;;;;14.18;6.63;;;19.00;99.90;;;;;;4992793;28;20383;-74
2023/07/30 04:21:10;;;;;;;12.10;6.50;;;19.00;99.90;;;;;;4991256;28;20030;-74
2023/07/30 04:23:36;;;;;;;16.00;7.13;;;19.00;99.90;;;;;;4992832;28;20029;-74
2023/07/30 04:26:02;;;;;;;15.82;7.35;;;18.90;99.90;;;;;;4995906;28;20476;-74
2023/07/30 04:28:28;;;;;;;17.63;6.88;;;18.90;99.90;;;;;;5011011;28;20031;-74
2023/07/30 04:30:54;;;;;;;14.65;6.68;;;18.90;99.90;;;;;;5011567;28;20042;-74
2023/07/30 04:33:20;;;;;;;14.52;6.60;;;18.90;99.90;;;;;;5011204;28;20391;-74
2023/07/30 04:35:46;;;;;;;14.02;7.57;;;18.90;99.90;;;;;;5011466;28;20044;-74
2023/07/30 04:38:12;;;;;;;13.90;7.28;;;18.90;99.90;;;;;;5011243;28;20384;-74
2023/07/30 04:40:39;;;;;;;13.00;8.10;;;18.80;99.90;;;;;;5010889;28;20061;-74
2023/07/30 04:43:05;;;;;;;19.60;11.20;;;18.80;99.90;;;;;;5014920;28;20029;-74
2023/07/30 04:45:31;;;;;;;14.90;7.55;;;18.80;99.90;;;;;;5013878;28;20069;-74
2023/07/30 04:47:57;;;;;;;12.57;7.13;;;18.80;99.90;;;;;;5015899;28;20041;-74
2023/07/30 04:50:23;;;;;;;12.43;8.75;;;18.80;99.90;;;;;;5013653;28;20042;-74
2023/07/30 04:52:49;;;;;;;16.50;11.50;;;18.70;99.90;;;;;;5014721;28;20065;-74
2023/07/30 04:55:16;;;;;;;11.20;7.10;;;18.80;99.90;;;;;;5014304;28;20022;-74
2023/07/30 04:57:42;;;;;;;13.73;7.95;;;18.70;99.90;;;;;;5014518;28;20383;-74
2023/07/30 05:00:08;;;;;;;10.50;7.55;;;18.70;99.90;;;;;;5014056;28;20049;-73
2023/07/30 05:02:34;;;;;;;13.23;7.97;;;18.70;99.90;;;;;;5014167;28;20507;-74
2023/07/30 05:05:00;;;;;;;15.95;8.23;;;18.70;99.90;;;;;;5013949;28;20049;-74
2023/07/30 05:07:26;;;;;;;15.80;9.07;;;18.70;99.90;;;;;;5015303;28;20034;-74
2023/07/30 05:09:52;;;;;;;14.70;6.60;;;18.70;99.90;;;;;;5014315;28;20037;-74
2023/07/30 05:12:19;;;;;;;17.90;5.43;;;18.70;99.90;;;;;;5014963;28;20030;-73
2023/07/30 05:14:45;;;;;;;16.92;6.75;;;18.70;99.90;;;;;;5015408;28;20033;-72
2023/07/30 05:17:11;;;;;;;17.13;6.22;;;18.70;99.90;;;;;;5012667;28;20049;-74
2023/07/30 05:19:37;;;;;;;13.75;5.75;;;18.70;99.90;;;;;;5015012;28;20026;-73
2023/07/30 05:22:05;;;;;;;13.70;5.97;;;18.80;99.90;;;;;;5015145;28;20383;-74
2023/07/30 05:24:31;;;;;;;11.25;9.52;;;18.80;99.90;;;;;;5015392;28;20359;-74
2023/07/30 05:26:57;;;;;;;13.48;10.05;;;18.80;99.90;;;;;;5013575;28;20056;-74
2023/07/30 05:29:23;;;;;;;13.10;9.95;;;18.80;99.90;;;;;;5015286;28;20375;-74
2023/07/30 05:31:49;;;;;;;17.05;12.35;;;18.80;99.90;;;;;;5013148;28;20049;-75
2023/07/30 05:34:16;;;;;;;16.90;6.97;;;18.90;99.90;;;;;;5014752;28;20387;-74
2023/07/30 05:36:42;;;;;;;13.20;6.80;;;18.90;99.90;;;;;;5014817;28;20038;-74
2023/07/30 05:39:08;;;;;;;12.40;8.52;;;19.00;99.90;;;;;;5014787;28;20492;-74
2023/07/30 05:41:34;;;;;;;14.52;7.63;;;19.20;99.90;;;;;;5013478;28;20048;-74
2023/07/30 05:44:00;;;;;;;15.13;6.85;;;19.30;99.90;;;;;;5015075;28;20040;-74
2023/07/30 05:46:26;;;;;;;12.85;7.43;;;19.50;99.90;;;;;;5013939;28;20050;-74
2023/07/30 05:48:52;;;;;;;15.25;7.75;;;19.70;99.90;;;;;;5013242;28;20026;-74
2023/07/30 05:51:18;;;;;;;22.60;12.90;;;20.00;99.90;;;;;;5012998;28;20053;-74
2023/07/30 05:53:44;;;;;;;19.58;14.30;;;20.10;99.90;;;;;;5012968;28;20045;-74
2023/07/30 05:56:13;;;;;;;16.00;14.50;;;20.30;99.90;;;;;;5014551;28;20041;-74
2023/07/30 05:58:39;;;;;;;14.40;12.90;;;20.40;99.90;;;;;;5013386;28;20018;-74
2023/07/30 06:01:05;;;;;;;16.73;14.50;;;20.50;99.90;;;;;;5012584;28;20060;-74
2023/07/30 06:03:31;;;;;;;15.43;11.95;;;20.50;99.90;;;;;;5014335;28;20460;-74
2023/07/30 06:05:57;;;;;;;18.83;12.73;;;20.50;99.90;;;;;;5014023;28;20057;-74
2023/07/30 06:08:23;;;;;;;20.80;18.55;;;20.50;99.90;;;;;;5014441;28;20022;-74
2023/07/30 06:10:50;;;;;;;24.30;22.40;;;20.40;99.90;;;;;;5013142;28;20038;-73
2023/07/30 06:13:16;;;;;;;20.63;18.80;;;20.40;99.90;;;;;;5013038;28;20026;-74
2023/07/30 06:15:42;;;;;;;21.58;19.38;;;20.30;99.90;;;;;;5013327;28;20487;-74
2023/07/30 06:18:08;;;;;;;24.15;21.63;;;20.20;99.90;;;;;;5013875;28;20041;-74
2023/07/30 06:20:35;;;;;;;25.05;22.95;;;20.00;99.90;;;;;;5014008;28;20391;-74
2023/07/30 06:23:01;;;;;;;24.85;22.55;;;20.00;99.90;;;;;;5014027;28;20537;-74
2023/07/30 06:25:27;;;;;;;25.85;23.52;;;19.90;99.90;;;;;;5013616;28;20030;-74
2023/07/30 06:27:54;;;;;;;29.20;27.08;;;19.90;99.90;;;;;;5012937;28;20533;-74
2023/07/30 06:30:20;;;;;;;34.17;31.58;;;19.90;99.90;;;;;;5013226;28;20033;-74
2023/07/30 06:32:46;;;;;;;24.45;22.55;;;19.90;99.90;;;;;;5013682;28;20029;-74
2023/07/30 06:35:12;;;;;;;24.00;21.90;;;19.90;99.90;;;;;;5012610;28;20030;-74
2023/07/30 06:37:38;;;;;;;18.30;12.48;;;19.90;99.90;;;;;;5012677;28;20056;-74
2023/07/30 06:40:06;;;;;;;15.68;9.07;;;19.90;99.90;;;;;;5013920;28;20018;-74
2023/07/30 06:42:32;;;;;;;14.02;8.45;;;19.90;99.90;;;;;;5014038;28;20050;-74
2023/07/30 06:44:58;;;;;;;15.75;9.45;;;19.90;99.90;;;;;;5013805;28;20041;-74
2023/07/30 06:47:24;;;;;;;16.17;11.00;;;20.00;99.90;;;;;;5012675;28;20045;-75
2023/07/30 06:49:50;;;;;;;16.25;11.38;;;20.00;99.90;;;;;;5012327;28;20042;-74
2023/07/30 06:52:16;;;;;;;19.08;11.60;;;20.00;99.90;;;;;;5013121;28;20045;-74
2023/07/30 06:54:42;;;;;;;13.00;8.63;;;20.00;99.90;;;;;;5013459;28;20034;-74
2023/07/30 06:57:08;;;;;;;15.45;8.93;;;19.90;99.90;;;;;;5012901;28;20040;-74
2023/07/30 06:59:35;;;;;;;15.32;8.85;;;20.10;99.90;;;;;;5012212;28;20033;-74
2023/07/30 07:02:01;;;;;;;11.18;9.27;;;20.20;99.90;;;;;;5011238;28;20069;-75
2023/07/30 07:04:27;;;;;;;17.40;9.85;;;20.20;99.90;;;;;;5012222;28;20036;-74
2023/07/30 07:06:53;;;;;;;15.25;11.02;;;20.20;99.90;;;;;;5011043;28;20042;-74
2023/07/30 07:09:19;;;;;;;17.60;11.90;;;20.20;99.90;;;;;;5012001;28;20025;-74
2023/07/30 07:11:45;;;;;;;12.63;11.00;;;20.30;99.90;;;;;;5013031;28;20033;-74
2023/07/30 07:14:11;;;;;;;16.27;11.65;;;20.30;99.90;;;;;;5013293;28;20049;-74
2023/07/30 07:16:37;;;;;;;19.45;11.80;;;20.40;99.90;;;;;;4991268;28;20487;-74
2023/07/30 07:19:03;;;;;;;16.63;13.38;;;20.50;99.90;;;;;;4992662;28;20049;-74
2023/07/30 07:21:29;;;;;;;18.77;14.48;;;20.50;99.90;;;;;;5002791;28;20483;-74
2023/07/30 07:23:55;;;;;;;25.55;23.58;;;20.50;99.90;;;;;;4995479;28;20052;-75
2023/07/30 07:26:21;;;;;;;26.40;24.27;;;20.70;99.90;;;;;;5011345;28;20499;-74
2023/07/30 07:28:48;;;;;;;25.40;23.13;;;20.90;99.90;;;;;;5011750;28;20037;-75
2023/07/30 07:31:14;;;;;;;26.40;24.40;;;21.10;99.90;;;;;;5011873;28;20418;-74
2023/07/30 07:33:40;;;;;;;20.17;18.10;;;21.30;99.90;;;;;;5011667;28;20045;-75
2023/07/30 07:36:07;;;;;;;22.27;20.00;;;21.40;99.90;;;;;;5012561;28;20034;-73
2023/07/30 07:38:34;;;;;;;18.27;15.65;;;21.40;99.90;;;;;;5011621;28;20026;-74
2023/07/30 07:41:01;;;;;;;19.23;17.20;;;21.40;99.90;;;;;;5011197;28;20030;-74
2023/07/30 07:43:27;;;;;;;18.55;16.20;;;21.40;99.90;;;;;;5012796;28;20022;-74
2023/07/30 07:45:53;;;;;;;17.80;15.93;;;21.40;99.90;;;;;;5011201;28;20050;-74
2023/07/30 07:48:19;;;;;;;18.20;14.52;;;21.40;99.90;;;;;;5012416;28;20033;-74
2023/07/30 07:50:45;;;;;;;16.60;15.00;;;21.50;99.90;;;;;;5012472;28;20053;-73
2023/07/30 07:53:12;;;;;;;18.58;14.95;;;21.50;99.90;;;;;;5011489;28;20042;-75
2023/07/30 07:55:38;;;;;;;15.30;12.63;;;21.60;99.90;;;;;;5011101;28;20033;-74
2023/07/30 07:58:04;;;;;;;16.20;14.70;;;21.80;99.90;;;;;;5012769;28;20037;-75
2023/07/30 08:00:30;;;;;;;18.65;15.65;;;22.00;99.90;;;;;;5010387;28;20053;-74
2023/07/30 08:02:56;;;;;;;14.63;13.05;;;22.20;99.90;;;;;;5012333;28;20490;-74
2023/07/30 08:05:24;;;;;;;14.27;12.77;;;22.30;99.90;;;;;;5012247;28;20025;-74
2023/07/30 08:07:50;;;;;;;19.58;13.38;;;22.50;99.90;;;;;;5012492;28;20475;-75
2023/07/30 08:10:16;;;;;;;14.10;12.68;;;22.60;99.90;;;;;;5012420;28;20034;-74
2023/07/30 08:12:42;;;;;;;14.18;12.80;;;22.70;99.90;;;;;;5012195;28;20037;-74
2023/07/30 08:15:09;;;;;;;14.73;11.57;;;22.80;99.90;;;;;;5010442;28;20038;-76
2023/07/30 08:17:35;;;;;;;14.82;12.52;;;22.80;99.90;;;;;;4996771;28;20030;-74
2023/07/30 08:20:01;;;;;;;17.95;16.30;;;22.60;99.90;;;;;;4996969;28;20037;-74
2023/07/30 08:22:27;;;;;;;15.23;13.77;;;22.60;99.90;;;;;;5013861;28;20037;-74
2023/07/30 08:24:53;;;;;;;18.45;16.65;;;22.50;99.90;;;;;;5016390;28;20030;-74
2023/07/30 08:27:19;;;;;;;19.98;18.30;;;22.50;99.90;;;;;;5013896;28;20054;-74
2023/07/30 08:29:45;;;;;;;18.45;16.83;;;22.40;99.90;;;;;;5016287;28;20029;-74
2023/07/30 08:32:11;;;;;;;18.23;16.60;;;22.20;99.90;;;;;;5014400;28;20042;-74
2023/07/30 08:34:38;;;;;;;18.52;16.83;;;22.00;99.90;;;;;;5016169;28;20033;-75
2023/07/30 08:37:04;;;;;;;17.52;15.88;;;22.10;99.90;;;;;;5014550;28;20061;-74
2023/07/30 08:39:30;;;;;;;20.77;19.15;;;22.10;99.90;;;;;;5016009;28;20022;-73
2023/07/30 08:41:56;;;;;;;24.98;22.98;;;22.30;99.90;;;;;;5014281;28;20061;-74
2023/07/30 08:44:22;;;;;;;22.75;20.80;;;22.60;99.90;;;;;;5016033;28;20030;-74
2023/07/30 08:46:48;;;;;;;21.38;19.17;;;22.90;99.90;;;;;;5014033;28;20113;-74
2023/07/30 08:49:14;;;;;;;21.35;19.50;;;23.10;99.90;;;;;;5014717;28;20030;-75
2023/07/30 08:51:42;;;;;;;21.13;19.48;;;23.30;99.90;;;;;;5014383;28;20050;-74
2023/07/30 08:54:09;;;;;;;23.42;21.55;;;23.50;99.90;;;;;;5014754;28;20455;-74
2023/07/30 08:56:35;;;;;;;23.45;21.42;;;23.60;99.90;;;;;;5014001;28;20045;-75
2023/07/30 08:59:01;;;;;;;43.63;40.78;;;23.60;99.90;;;;;;5015778;28;20026;-74
2023/07/30 09:01:31;;;;;;;35.70;33.20;;;23.60;99.90;;;;;;5013759;28;20506;-74
2023/07/30 09:04:00;;;;;;;36.80;34.40;;;23.40;99.90;;;;;;5014505;28;20029;-74
2023/07/30 09:06:26;;;;;;;29.80;27.52;;;23.40;99.90;;;;;;5013975;28;20049;-74
2023/07/30 09:08:52;;;;;;;30.42;28.42;;;23.50;99.90;;;;;;5015480;28;20029;-74
2023/07/30 09:11:20;;;;;;;33.92;31.45;;;23.80;99.90;;;;;;5013719;28;20045;-74
2023/07/30 09:13:46;;;;;;;23.42;22.00;;;23.90;99.90;;;;;;5014467;28;20387;-75
2023/07/30 09:16:13;;;;;;;25.92;24.23;;;24.10;99.90;;;;;;4992079;28;20061;-74
2023/07/30 09:18:44;;;;;;;26.67;24.55;;;24.20;99.90;;;;;;5027216;28;20029;-75
2023/07/30 09:21:10;;;;;;;;;;;24.30;99.90;;;;;;5019049;28;20037;-75
2023/07/30 09:23:44;;;;;;;16.58;15.38;;;24.20;99.90;;;;;;5015204;28;19905;-74
2023/07/30 09:26:10;;;;;;;15.35;14.00;;;24.20;99.90;;;;;;5013443;28;20026;-74
2023/07/30 09:28:36;;;;;;;13.63;12.40;;;24.20;99.90;;;;;;5013126;28;20574;-75
2023/07/30 09:31:03;;;;;;;16.63;15.23;;;24.10;99.90;;;;;;5014516;28;20037;-74
2023/07/30 09:33:31;;;;;;;20.67;18.45;;;24.10;99.90;;;;;;5013827;28;20379;-74
2023/07/30 09:35:57;;;;;;;17.30;15.80;;;24.10;99.90;;;;;;5013629;28;20478;-74
2023/07/30 09:38:23;;;;;;;17.40;16.10;;;23.90;99.90;;;;;;5014007;28;20038;-74
2023/07/30 09:40:49;;;;;;;22.52;20.60;;;23.60;99.90;;;;;;5013250;28;20034;-74
2023/07/30 09:43:15;;;;;;;21.65;19.90;;;23.20;99.90;;;;;;5014705;28;20036;-74
2023/07/30 09:45:47;;;;;;;20.67;18.98;;;23.00;99.90;;;;;;5014120;28;20399;-74
2023/07/30 09:48:13;;;;;;;24.00;22.30;;;22.90;99.90;;;;;;5013656;28;20030;-74
2023/07/30 09:50:39;;;;;;;24.55;22.67;;;22.90;99.90;;;;;;4997553;28;20053;-75
2023/07/30 09:53:05;;;;;;;20.63;19.08;;;23.10;99.90;;;;;;5013397;28;20030;-74
2023/07/30 09:55:32;;;;;;;19.85;18.25;;;23.40;99.90;;;;;;5012923;28;20037;-74
2023/07/30 09:57:58;;;;;;;18.05;16.55;;;23.60;99.90;;;;;;5014598;28;20026;-75
2023/07/30 10:00:24;;;;;;;20.05;18.30;;;23.90;99.90;;;;;;5012552;28;20383;-75
2023/07/30 10:02:50;;;;;;;17.13;15.80;;;24.20;99.90;;;;;;5013087;28;20038;-74
2023/07/30 10:05:18;;;;;;;17.90;16.50;;;24.40;99.90;;;;;;5012947;28;20022;-74
2023/07/30 10:07:51;;;;;;;19.60;18.20;;;24.50;99.90;;;;;;5014290;28;20049;-74
2023/07/30 10:10:19;;;;;;;19.85;18.05;;;24.40;99.90;;;;;;5012556;28;20018;-74
2023/07/30 10:12:45;;;;;;;20.38;18.98;;;24.40;99.20;;;;;;5013289;28;20034;-74
2023/07/30 10:15:11;;;;;;;19.63;18.23;;;24.40;98.80;;;;;;5013473;28;20056;-74
2023/07/30 10:17:37;;;;;;;18.45;16.85;;;24.50;99.10;;;;;;4996323;28;20034;-74
2023/07/30 10:20:23;;;;;;;18.17;16.77;;;24.50;99.00;;;;;;4993547;28;20029;-74
2023/07/30 10:22:59;;;;;;;20.65;18.77;;;24.40;98.90;;;;;;4993615;28;20038;-74
2023/07/30 10:25:30;;;;;;;20.17;18.75;;;24.40;98.80;;;;;;4994900;28;20397;-75
2023/07/30 10:27:56;;;;;;;19.60;17.88;;;24.60;98.90;;;;;;5012956;28;20380;-74
2023/07/30 10:30:24;;;;;;;21.15;19.33;;;24.70;98.90;;;;;;5012020;28;20049;-75
2023/07/30 10:32:59;;;;;;;20.38;18.92;;;25.00;99.20;;;;;;5012583;28;20029;-74
2023/07/30 10:35:46;;;;;;;23.95;22.15;;;25.40;98.70;;;;;;5013651;28;20041;-75
2023/07/30 10:38:33;;;;;;;23.33;21.70;;;25.70;98.10;;;;;;5013612;28;20033;-74
2023/07/30 10:41:00;;;;;;;25.45;23.85;;;25.90;98.00;;;;;;5012155;28;20470;-74
2023/07/30 10:43:38;;;;;;;23.02;21.23;;;25.90;98.00;;;;;;5013997;28;20034;-75
2023/07/30 10:46:04;;;;;;;21.42;19.88;;;25.90;97.30;;;;;;5013054;28;20110;-75
2023/07/30 10:48:32;;;;;;;25.58;23.65;;;25.70;97.40;;;;;;5013569;28;20046;-75
2023/07/30 10:50:58;;;;;;;23.38;21.58;;;25.40;97.20;;;;;;5013133;28;20046;-76
2023/07/30 10:53:24;;;;;;;21.85;20.15;;;25.40;97.80;;;;;;4995567;28;20038;-76
2023/07/30 10:55:52;;;;;;;23.60;21.77;;;25.60;98.30;;;;;;5013145;28;20034;-76
2023/07/30 10:58:18;;;;;;;28.65;26.70;;;25.80;97.70;;;;;;5012394;28;20026;-76
2023/07/30 11:00:44;;;;;;;28.85;26.90;;;26.00;96.30;;;;;;5011557;28;20030;-76
2023/07/30 11:03:11;;;;;;;24.98;23.30;;;25.90;96.30;;;;;;5013314;28;20037;-76
2023/07/30 11:05:40;;;;;;;28.65;26.73;;;25.80;96.30;;;;;;5011619;28;20045;-75
2023/07/30 11:08:06;;;;;;;27.45;25.63;;;25.80;96.30;;;;;;5012994;28;20030;-74
2023/07/30 11:10:32;;;;;;;27.58;25.48;;;26.00;96.10;;;;;;5011838;28;20026;-75
2023/07/30 11:12:58;;;;;;;27.95;26.17;;;26.10;95.90;;;;;;5012054;28;20030;-73
2023/07/30 11:15:24;;;;;;;26.85;25.20;;;26.10;96.30;;;;;;5012453;28;20053;-73
2023/07/30 11:17:53;;;;;;;24.48;22.77;;;26.00;96.70;;;;;;5011693;28;20037;-73
2023/07/30 11:20:29;;;;;;;27.75;25.77;;;26.00;97.10;;;;;;5011347;28;20041;-73
2023/07/30 11:22:55;;;;;;;26.85;25.02;;;26.00;95.80;;;;;;5011517;28;20033;-73
2023/07/30 11:25:21;;;;;;;26.92;24.90;;;26.10;96.70;;;;;;5012567;28;20033;-73
2023/07/30 11:27:48;;;;;;;26.27;24.27;;;26.20;96.70;;;;;;5011623;28;20054;-73
2023/07/30 11:30:14;;;;;;;26.00;24.20;;;26.30;96.50;;;;;;5011000;28;20366;-73
2023/07/30 11:32:44;;;;;;;27.50;25.80;;;26.30;96.80;;;;;;5011962;28;20379;-73
2023/07/30 11:35:14;;;;;;;26.52;24.10;;;26.30;96.10;;;;;;4994934;28;20041;-73
2023/07/30 11:37:42;;;;;;;23.85;22.15;;;26.20;96.30;;;;;;5011365;28;20034;-73
2023/07/30 11:40:11;;;;;;;27.83;25.90;;;26.10;96.30;;;;;;5011717;28;20029;-75
2023/07/30 11:42:37;;;;;;;25.58;23.77;;;26.00;96.60;;;;;;5011812;28;20034;-75
2023/07/30 11:45:22;;;;;;;24.55;22.88;;;25.80;97.20;;;;;;5011182;28;20033;-75
2023/07/30 11:47:49;;;;;;;25.38;23.58;;;25.80;97.00;;;;;;4995276;28;20045;-75
2023/07/30 11:50:15;;;;;;;24.90;23.20;;;25.80;96.60;;;;;;5010711;28;20049;-75
2023/07/30 11:52:54;;;;;;;22.27;20.52;;;25.80;96.50;;;;;;5012309;28;20033;-76
2023/07/30 11:55:20;;;;;;;26.13;24.27;;;25.80;96.60;;;;;;5012403;28;20026;-75
2023/07/30 11:57:47;;;;;;;26.65;24.85;;;25.80;96.40;;;;;;5011445;28;20037;-76
2023/07/30 12:00:13;;;;;;;27.75;25.95;;;25.90;96.00;;;;;;5010809;28;20471;-76
2023/07/30 12:02:39;;;;;;;24.92;22.77;;;26.00;95.70;;;;;;5011367;28;20045;-75
2023/07/30 12:05:06;;;;;;;27.20;25.30;;;26.20;96.00;;;;;;5012079;28;20506;-76
2023/07/30 12:07:32;;;;;;;28.13;26.33;;;26.30;95.10;;;;;;5010828;28;20045;-75
2023/07/30 12:10:11;;;;;;;28.50;26.65;;;26.40;95.50;;;;;;5011476;28;20391;-73
2023/07/30 12:12:45;;;;;;;31.42;29.42;;;26.50;95.20;;;;;;5010673;28;20483;-73
2023/07/30 12:15:12;;;;;;;27.20;25.30;;;26.50;95.20;;;;;;5010445;28;20022;-73
2023/07/30 12:17:38;;;;;;;30.83;28.65;;;26.60;95.80;;;;;;4991339;28;20042;-73
2023/07/30 12:20:06;;;;;;;27.30;25.25;;;26.70;95.00;;;;;;4991482;28;20027;-74
2023/07/30 12:22:38;;;;;;;28.08;26.10;;;26.60;95.10;;;;;;5010652;28;20368;-73
2023/07/30 12:25:04;;;;;;;27.23;25.50;;;26.60;95.10;;;;;;5012449;28;20014;-73
2023/07/30 12:27:30;;;;;;;28.60;26.85;;;26.50;95.50;;;;;;5010676;28;20652;-72